sensor_id;sensor_type;location;lat;lon;timestamp;pressure;altitude;pressure_sealevel;temperature;humidity
43701;BME280;58809;47.984;7.964;2023-03-26T00:01:39;96793.97;;;13.88;nan
43701;BME280;58809;47.984;7.964;2023-03-26T00:04:41;96792.75;;;13.91;nan
43701;BME280;58809;47.984;7.964;2023-03-26T00:07:43;96789.25;;;13.97;nan
43701;BME280;58809;47.984;7.964;2023-03-26T00:10:45;96776.59;;;13.92;nan
43701;BME280;58809;47.984;7.964;2023-03-26T00:13:47;96774.94;;;13.91;nan
43701;BME280;58809;47.984;7.964;2023-03-26T00:16:49;96780.25;;;13.98;nan
43701;BME280;58809;47.984;7.964;2023-03-26T00:19:50;96781.69;;;13.94;nan
43701;BME280;58809;47.984;7.964;2023-03-26T00:22:54;96767.16;;;13.96;nan
43701;BME280;58809;47.984;7.964;2023-03-26T00:25:56;96771.66;;;13.96;nan
43701;BME280;58809;47.984;7.964;2023-03-26T00:28:57;96774.09;;;13.97;nan
43701;BME280;58809;47.984;7.964;2023-03-26T00:32:00;96774.34;;;13.89;nan
43701;BME280;58809;47.984;7.964;2023-03-26T00:35:02;96764.50;;;13.96;nan
43701;BME280;58809;47.984;7.964;2023-03-26T00:38:04;96761.56;;;14.04;nan
43701;BME280;58809;47.984;7.964;2023-03-26T00:41:08;96761.41;;;13.99;nan
43701;BME280;58809;47.984;7.964;2023-03-26T00:44:18;96762.22;;;14.00;nan
43701;BME280;58809;47.984;7.964;2023-03-26T00:47:20;96754.88;;;13.95;nan
43701;BME280;58809;47.984;7.964;2023-03-26T00:50:21;96760.38;;;14.00;nan
43701;BME280;58809;47.984;7.964;2023-03-26T00:53:23;96761.19;;;14.01;nan
43701;BME280;58809;47.984;7.964;2023-03-26T00:56:25;96762.41;;;14.05;nan
43701;BME280;58809;47.984;7.964;2023-03-26T00:59:26;96758.69;;;14.06;nan
43701;BME280;58809;47.984;7.964;2023-03-26T01:02:30;96760.06;;;14.15;nan
43701;BME280;58809;47.984;7.964;2023-03-26T01:08:49;96754.38;;;14.12;nan
43701;BME280;58809;47.984;7.964;2023-03-26T01:11:51;96745.16;;;14.14;nan
43701;BME280;58809;47.984;7.964;2023-03-26T01:14:55;96738.19;;;14.13;nan
43701;BME280;58809;47.984;7.964;2023-03-26T01:18:00;96730.41;;;14.12;nan
43701;BME280;58809;47.984;7.964;2023-03-26T01:21:06;96731.88;;;14.08;nan
43701;BME280;58809;47.984;7.964;2023-03-26T01:24:09;96721.63;;;14.11;nan
43701;BME280;58809;47.984;7.964;2023-03-26T01:33:53;96688.38;;;13.95;nan
43701;BME280;58809;47.984;7.964;2023-03-26T01:37:24;96674.25;;;13.95;nan
43701;BME280;58809;47.984;7.964;2023-03-26T01:40:34;96666.66;;;13.98;nan
43701;BME280;58809;47.984;7.964;2023-03-26T01:43:50;96650.53;;;13.93;nan
43701;BME280;58809;47.984;7.964;2023-03-26T01:46:54;96647.09;;;13.86;nan
43701;BME280;58809;47.984;7.964;2023-03-26T01:49:56;96639.66;;;13.70;nan
43701;BME280;58809;47.984;7.964;2023-03-26T01:52:58;96615.81;;;14.13;nan
43701;BME280;58809;47.984;7.964;2023-03-26T02:02:44;96607.56;;;13.64;nan
43701;BME280;58809;47.984;7.964;2023-03-26T02:06:12;96597.41;;;13.55;nan
43701;BME280;58809;47.984;7.964;2023-03-26T02:09:21;96597.13;;;13.38;nan
43701;BME280;58809;47.984;7.964;2023-03-26T02:12:25;96590.81;;;13.25;nan
43701;BME280;58809;47.984;7.964;2023-03-26T02:15:28;96571.84;;;13.22;nan
43701;BME280;58809;47.984;7.964;2023-03-26T02:18:29;96575.94;;;13.18;nan
43701;BME280;58809;47.984;7.964;2023-03-26T02:21:37;96567.59;;;13.14;nan
43701;BME280;58809;47.984;7.964;2023-03-26T02:24:38;96558.91;;;12.94;nan
43701;BME280;58809;47.984;7.964;2023-03-26T02:27:40;96563.78;;;12.97;nan
43701;BME280;58809;47.984;7.964;2023-03-26T02:30:44;96553.41;;;12.95;nan
43701;BME280;58809;47.984;7.964;2023-03-26T02:33:48;96541.16;;;12.87;nan
43701;BME280;58809;47.984;7.964;2023-03-26T02:36:50;96524.28;;;12.75;nan
43701;BME280;58809;47.984;7.964;2023-03-26T02:39:52;96536.78;;;12.61;nan
43701;BME280;58809;47.984;7.964;2023-03-26T02:43:01;96526.97;;;12.62;nan
43701;BME280;58809;47.984;7.964;2023-03-26T02:46:05;96524.75;;;12.59;nan
43701;BME280;58809;47.984;7.964;2023-03-26T02:49:20;96519.66;;;12.57;nan
43701;BME280;58809;47.984;7.964;2023-03-26T02:52:22;96513.75;;;12.48;nan
43701;BME280;58809;47.984;7.964;2023-03-26T02:55:25;96507.03;;;12.46;nan
43701;BME280;58809;47.984;7.964;2023-03-26T02:58:29;96514.41;;;12.44;nan
43701;BME280;58809;47.984;7.964;2023-03-26T03:01:31;96505.00;;;12.48;nan
43701;BME280;58809;47.984;7.964;2023-03-26T03:04:35;96497.25;;;12.46;nan
43701;BME280;58809;47.984;7.964;2023-03-26T03:07:36;96484.38;;;12.43;nan
43701;BME280;58809;47.984;7.964;2023-03-26T03:10:39;96487.53;;;12.72;nan
43701;BME280;58809;47.984;7.964;2023-03-26T03:13:55;96483.22;;;14.47;nan
43701;BME280;58809;47.984;7.964;2023-03-26T03:16:59;96472.38;;;14.67;nan
43701;BME280;58809;47.984;7.964;2023-03-26T03:20:00;96475.88;;;14.79;nan
43701;BME280;58809;47.984;7.964;2023-03-26T03:23:02;96470.69;;;14.85;nan
43701;BME280;58809;47.984;7.964;2023-03-26T03:26:12;96468.03;;;14.85;nan
43701;BME280;58809;47.984;7.964;2023-03-26T03:29:15;96452.84;;;14.85;nan
43701;BME280;58809;47.984;7.964;2023-03-26T03:32:17;96437.91;;;14.84;nan
43701;BME280;58809;47.984;7.964;2023-03-26T03:35:21;96428.16;;;14.78;nan
43701;BME280;58809;47.984;7.964;2023-03-26T03:38:27;96421.56;;;14.32;nan
43701;BME280;58809;47.984;7.964;2023-03-26T03:41:29;96419.81;;;14.56;nan
43701;BME280;58809;47.984;7.964;2023-03-26T03:44:31;96412.94;;;14.67;nan
43701;BME280;58809;47.984;7.964;2023-03-26T03:47:35;96412.72;;;14.68;nan
43701;BME280;58809;47.984;7.964;2023-03-26T03:50:36;96401.16;;;14.74;nan
43701;BME280;58809;47.984;7.964;2023-03-26T03:53:55;96411.81;;;14.74;nan
43701;BME280;58809;47.984;7.964;2023-03-26T03:57:20;96416.69;;;14.77;nan
43701;BME280;58809;47.984;7.964;2023-03-26T04:00:44;96416.25;;;14.80;nan
43701;BME280;58809;47.984;7.964;2023-03-26T04:04:08;96391.81;;;14.83;nan
43701;BME280;58809;47.984;7.964;2023-03-26T04:07:33;96395.75;;;14.81;nan
43701;BME280;58809;47.984;7.964;2023-03-26T04:10:37;96391.34;;;14.87;nan
43701;BME280;58809;47.984;7.964;2023-03-26T04:13:45;96384.78;;;14.89;nan
43701;BME280;58809;47.984;7.964;2023-03-26T04:17:12;96377.09;;;14.81;nan
43701;BME280;58809;47.984;7.964;2023-03-26T04:20:17;96359.34;;;14.63;nan
43701;BME280;58809;47.984;7.964;2023-03-26T04:23:21;96356.97;;;14.55;nan
43701;BME280;58809;47.984;7.964;2023-03-26T04:26:30;96359.41;;;14.56;nan
43701;BME280;58809;47.984;7.964;2023-03-26T04:29:43;96352.91;;;14.52;nan
43701;BME280;58809;47.984;7.964;2023-03-26T04:32:53;96349.97;;;14.72;nan
43701;BME280;58809;47.984;7.964;2023-03-26T04:35:59;96340.31;;;14.90;nan
43701;BME280;58809;47.984;7.964;2023-03-26T04:39:05;96340.88;;;14.92;nan
43701;BME280;58809;47.984;7.964;2023-03-26T04:42:27;96333.47;;;14.94;nan
43701;BME280;58809;47.984;7.964;2023-03-26T04:45:43;96323.66;;;15.06;nan
43701;BME280;58809;47.984;7.964;2023-03-26T04:48:50;96320.03;;;15.12;nan
43701;BME280;58809;47.984;7.964;2023-03-26T04:51:51;96322.13;;;15.10;nan
43701;BME280;58809;47.984;7.964;2023-03-26T04:55:40;96311.94;;;15.31;nan
43701;BME280;58809;47.984;7.964;2023-03-26T04:58:51;96309.69;;;15.51;nan
43701;BME280;58809;47.984;7.964;2023-03-26T05:01:59;96297.88;;;15.59;nan
43701;BME280;58809;47.984;7.964;2023-03-26T05:05:05;96294.16;;;15.60;nan
43701;BME280;58809;47.984;7.964;2023-03-26T05:08:08;96292.56;;;15.47;nan
43701;BME280;58809;47.984;7.964;2023-03-26T05:11:10;96269.84;;;15.45;nan
43701;BME280;58809;47.984;7.964;2023-03-26T05:14:12;96271.84;;;15.37;nan
43701;BME280;58809;47.984;7.964;2023-03-26T05:17:14;96290.59;;;15.31;nan
43701;BME280;58809;47.984;7.964;2023-03-26T05:20:23;96287.44;;;15.46;nan
43701;BME280;58809;47.984;7.964;2023-03-26T05:23:25;96286.72;;;15.62;nan
43701;BME280;58809;47.984;7.964;2023-03-26T05:26:39;96281.53;;;15.79;nan
43701;BME280;58809;47.984;7.964;2023-03-26T05:29:40;96261.78;;;15.80;nan
43701;BME280;58809;47.984;7.964;2023-03-26T05:32:42;96264.69;;;15.78;nan
43701;BME280;58809;47.984;7.964;2023-03-26T05:35:45;96263.56;;;15.63;nan
43701;BME280;58809;47.984;7.964;2023-03-26T05:38:47;96251.88;;;15.40;nan
43701;BME280;58809;47.984;7.964;2023-03-26T05:42:28;96249.47;;;15.27;nan
43701;BME280;58809;47.984;7.964;2023-03-26T05:45:42;96235.94;;;15.16;nan
43701;BME280;58809;47.984;7.964;2023-03-26T05:48:52;96224.34;;;15.11;nan
43701;BME280;58809;47.984;7.964;2023-03-26T05:51:54;96225.19;;;15.11;nan
43701;BME280;58809;47.984;7.964;2023-03-26T05:55:25;96198.88;;;15.03;nan
43701;BME280;58809;47.984;7.964;2023-03-26T05:58:58;96195.88;;;14.99;nan
43701;BME280;58809;47.984;7.964;2023-03-26T06:02:02;96183.72;;;14.92;nan
43701;BME280;58809;47.984;7.964;2023-03-26T06:05:36;96179.44;;;14.91;nan
43701;BME280;58809;47.984;7.964;2023-03-26T06:08:48;96161.84;;;14.90;nan
43701;BME280;58809;47.984;7.964;2023-03-26T06:12:06;96161.72;;;14.85;nan
43701;BME280;58809;47.984;7.964;2023-03-26T06:15:09;96154.53;;;14.85;nan
43701;BME280;58809;47.984;7.964;2023-03-26T06:18:20;96139.41;;;14.86;nan
43701;BME280;58809;47.984;7.964;2023-03-26T06:21:43;96135.09;;;14.85;nan
43701;BME280;58809;47.984;7.964;2023-03-26T06:24:52;96118.16;;;15.02;nan
43701;BME280;58809;47.984;7.964;2023-03-26T06:28:15;96124.97;;;15.10;nan
43701;BME280;58809;47.984;7.964;2023-03-26T06:31:19;96120.66;;;15.21;nan
43701;BME280;58809;47.984;7.964;2023-03-26T06:34:28;96134.38;;;15.01;nan
43701;BME280;58809;47.984;7.964;2023-03-26T06:37:30;96128.44;;;15.11;nan
43701;BME280;58809;47.984;7.964;2023-03-26T06:40:34;96120.03;;;15.31;nan
43701;BME280;58809;47.984;7.964;2023-03-26T06:43:51;96125.09;;;15.44;nan
43701;BME280;58809;47.984;7.964;2023-03-26T06:47:19;96113.28;;;15.40;nan
43701;BME280;58809;47.984;7.964;2023-03-26T06:50:23;96109.53;;;15.24;nan
43701;BME280;58809;47.984;7.964;2023-03-26T06:53:43;96118.19;;;15.31;nan
43701;BME280;58809;47.984;7.964;2023-03-26T06:56:51;96127.00;;;15.32;nan
43701;BME280;58809;47.984;7.964;2023-03-26T07:00:11;96120.31;;;15.17;nan
43701;BME280;58809;47.984;7.964;2023-03-26T07:03:32;96133.06;;;15.15;nan
43701;BME280;58809;47.984;7.964;2023-03-26T07:06:52;96108.16;;;15.67;nan
43701;BME280;58809;47.984;7.964;2023-03-26T07:10:13;96104.66;;;15.78;nan
43701;BME280;58809;47.984;7.964;2023-03-26T07:13:33;96100.81;;;15.86;nan
43701;BME280;58809;47.984;7.964;2023-03-26T07:16:54;96106.13;;;16.03;nan
43701;BME280;58809;47.984;7.964;2023-03-26T07:20:28;96100.13;;;15.50;nan
43701;BME280;58809;47.984;7.964;2023-03-26T07:23:30;96086.53;;;14.94;nan
43701;BME280;58809;47.984;7.964;2023-03-26T07:30:31;96079.19;;;13.90;nan
43701;BME280;58809;47.984;7.964;2023-03-26T07:34:02;96074.56;;;13.97;nan
43701;BME280;58809;47.984;7.964;2023-03-26T07:40:57;96061.53;;;14.31;nan
43701;BME280;58809;47.984;7.964;2023-03-26T07:44:36;96060.25;;;14.46;nan
43701;BME280;58809;47.984;7.964;2023-03-26T07:48:21;96062.22;;;14.62;nan
43701;BME280;58809;47.984;7.964;2023-03-26T07:51:51;96100.94;;;14.81;nan
43701;BME280;58809;47.984;7.964;2023-03-26T07:55:13;96064.03;;;14.73;nan
43701;BME280;58809;47.984;7.964;2023-03-26T07:58:48;96066.94;;;14.72;nan
43701;BME280;58809;47.984;7.964;2023-03-26T08:06:07;96130.63;;;12.06;nan
43701;BME280;58809;47.984;7.964;2023-03-26T08:09:29;96163.50;;;11.66;nan
43701;BME280;58809;47.984;7.964;2023-03-26T08:16:27;96159.13;;;12.61;nan
43701;BME280;58809;47.984;7.964;2023-03-26T08:30:04;96143.47;;;13.26;nan
43701;BME280;58809;47.984;7.964;2023-03-26T08:33:17;96161.56;;;12.99;nan
43701;BME280;58809;47.984;7.964;2023-03-26T08:36:19;96151.16;;;13.35;nan
43701;BME280;58809;47.984;7.964;2023-03-26T08:39:21;96152.88;;;13.59;nan
43701;BME280;58809;47.984;7.964;2023-03-26T08:46:23;96157.28;;;13.65;nan
43701;BME280;58809;47.984;7.964;2023-03-26T08:56:51;96136.16;;;14.36;nan
43701;BME280;58809;47.984;7.964;2023-03-26T09:33:56;96140.66;;;14.95;nan
43701;BME280;58809;47.984;7.964;2023-03-26T09:44:39;96113.47;;;15.21;nan
43701;BME280;58809;47.984;7.964;2023-03-26T09:58:06;96124.13;;;16.64;nan
43701;BME280;58809;47.984;7.964;2023-03-26T10:05:04;96106.03;;;17.10;nan
43701;BME280;58809;47.984;7.964;2023-03-26T10:08:35;96109.66;;;16.99;nan
43701;BME280;58809;47.984;7.964;2023-03-26T10:18:39;96129.06;;;16.55;nan
43701;BME280;58809;47.984;7.964;2023-03-26T10:22:02;96119.59;;;16.64;nan
43701;BME280;58809;47.984;7.964;2023-03-26T10:29:01;96099.38;;;16.51;nan
43701;BME280;58809;47.984;7.964;2023-03-26T10:32:32;96131.44;;;16.90;nan
43701;BME280;58809;47.984;7.964;2023-03-26T10:53:02;96126.38;;;15.42;nan
43701;BME280;58809;47.984;7.964;2023-03-26T10:56:31;96141.97;;;15.21;nan
43701;BME280;58809;47.984;7.964;2023-03-26T10:59:33;96133.34;;;15.02;nan
43701;BME280;58809;47.984;7.964;2023-03-26T11:02:43;96124.63;;;15.07;nan
43701;BME280;58809;47.984;7.964;2023-03-26T11:06:14;96144.78;;;17.07;nan
43701;BME280;58809;47.984;7.964;2023-03-26T11:09:28;96140.22;;;17.79;nan
43701;BME280;58809;47.984;7.964;2023-03-26T11:12:37;96104.06;;;19.57;nan
43701;BME280;58809;47.984;7.964;2023-03-26T11:16:01;96118.34;;;20.40;nan
43701;BME280;58809;47.984;7.964;2023-03-26T11:20:09;96112.72;;;20.42;nan
43701;BME280;58809;47.984;7.964;2023-03-26T11:22:55;96108.66;;;21.95;nan
43701;BME280;58809;47.984;7.964;2023-03-26T11:26:09;96102.06;;;22.46;nan
43701;BME280;58809;47.984;7.964;2023-03-26T11:29:44;96111.31;;;22.00;nan
43701;BME280;58809;47.984;7.964;2023-03-26T11:33:02;96108.44;;;22.26;nan
43701;BME280;58809;47.984;7.964;2023-03-26T11:36:08;96107.91;;;21.84;nan
43701;BME280;58809;47.984;7.964;2023-03-26T11:39:21;96088.34;;;21.68;nan
43701;BME280;58809;47.984;7.964;2023-03-26T11:42:24;96098.19;;;21.44;nan
43701;BME280;58809;47.984;7.964;2023-03-26T11:45:29;96115.97;;;21.34;nan
43701;BME280;58809;47.984;7.964;2023-03-26T11:48:40;96137.69;;;20.88;nan
43701;BME280;58809;47.984;7.964;2023-03-26T11:51:46;96144.13;;;19.85;nan
43701;BME280;58809;47.984;7.964;2023-03-26T11:54:48;96153.53;;;17.74;nan
43701;BME280;58809;47.984;7.964;2023-03-26T11:57:53;96155.31;;;16.41;nan
43701;BME280;58809;47.984;7.964;2023-03-26T12:00:56;96154.91;;;16.15;nan
43701;BME280;58809;47.984;7.964;2023-03-26T12:04:04;96161.53;;;16.30;nan
43701;BME280;58809;47.984;7.964;2023-03-26T12:07:20;96215.47;;;16.15;nan
43701;BME280;58809;47.984;7.964;2023-03-26T12:10:36;96212.34;;;13.46;nan
43701;BME280;58809;47.984;7.964;2023-03-26T12:13:44;96200.59;;;11.66;nan
43701;BME280;58809;47.984;7.964;2023-03-26T12:17:06;96193.50;;;14.09;nan
43701;BME280;58809;47.984;7.964;2023-03-26T12:20:40;96169.34;;;14.34;nan
43701;BME280;58809;47.984;7.964;2023-03-26T12:23:54;96159.34;;;15.24;nan
43701;BME280;58809;47.984;7.964;2023-03-26T12:30:32;96140.03;;;16.03;nan
43701;BME280;58809;47.984;7.964;2023-03-26T12:33:34;96132.22;;;14.51;nan
43701;BME280;58809;47.984;7.964;2023-03-26T12:36:38;96137.72;;;14.02;nan
43701;BME280;58809;47.984;7.964;2023-03-26T12:39:41;96124.81;;;13.75;nan
43701;BME280;58809;47.984;7.964;2023-03-26T12:43:20;96118.34;;;13.71;nan
43701;BME280;58809;47.984;7.964;2023-03-26T12:46:43;96107.81;;;13.64;nan
43701;BME280;58809;47.984;7.964;2023-03-26T12:50:12;96094.28;;;14.67;nan
43701;BME280;58809;47.984;7.964;2023-03-26T12:56:30;96095.88;;;15.09;nan
43701;BME280;58809;47.984;7.964;2023-03-26T12:59:42;96091.31;;;14.92;nan
43701;BME280;58809;47.984;7.964;2023-03-26T13:03:03;96094.94;;;14.74;nan
43701;BME280;58809;47.984;7.964;2023-03-26T13:06:40;96096.56;;;14.52;nan
43701;BME280;58809;47.984;7.964;2023-03-26T13:16:41;96055.25;;;15.01;nan
43701;BME280;58809;47.984;7.964;2023-03-26T13:20:05;96052.53;;;15.42;nan
43701;BME280;58809;47.984;7.964;2023-03-26T13:23:29;96039.66;;;16.19;nan
43701;BME280;58809;47.984;7.964;2023-03-26T13:27:10;96028.63;;;15.47;nan
43701;BME280;58809;47.984;7.964;2023-03-26T13:30:27;96033.44;;;20.70;nan
43701;BME280;58809;47.984;7.964;2023-03-26T13:37:03;96022.50;;;21.06;nan
43701;BME280;58809;47.984;7.964;2023-03-26T13:40:20;96010.22;;;20.89;nan
43701;BME280;58809;47.984;7.964;2023-03-26T13:43:31;96015.81;;;20.98;nan
43701;BME280;58809;47.984;7.964;2023-03-26T13:46:53;96001.50;;;21.08;nan
43701;BME280;58809;47.984;7.964;2023-03-26T13:50:04;95981.16;;;20.91;nan
43701;BME280;58809;47.984;7.964;2023-03-26T13:53:14;95957.94;;;20.51;nan
43701;BME280;58809;47.984;7.964;2023-03-26T13:56:22;95956.75;;;19.20;nan
43701;BME280;58809;47.984;7.964;2023-03-26T13:59:37;95970.69;;;19.17;nan
43701;BME280;58809;47.984;7.964;2023-03-26T14:02:42;95988.81;;;14.95;nan
43701;BME280;58809;47.984;7.964;2023-03-26T14:05:46;96064.06;;;12.88;nan
43701;BME280;58809;47.984;7.964;2023-03-26T14:08:55;96144.19;;;10.29;nan
43701;BME280;58809;47.984;7.964;2023-03-26T14:15:58;96184.66;;;12.37;nan
43701;BME280;58809;47.984;7.964;2023-03-26T14:22:29;96161.34;;;12.82;nan
43701;BME280;58809;47.984;7.964;2023-03-26T14:39:56;96146.44;;;14.33;nan
43701;BME280;58809;47.984;7.964;2023-03-26T14:43:26;96126.69;;;14.64;nan
43701;BME280;58809;47.984;7.964;2023-03-26T14:46:46;96136.25;;;14.53;nan
43701;BME280;58809;47.984;7.964;2023-03-26T14:53:23;96122.75;;;15.76;nan
43701;BME280;58809;47.984;7.964;2023-03-26T14:56:48;96119.56;;;17.03;nan
43701;BME280;58809;47.984;7.964;2023-03-26T15:10:31;96134.19;;;18.21;nan
43701;BME280;58809;47.984;7.964;2023-03-26T15:17:52;96124.63;;;17.98;nan
43701;BME280;58809;47.984;7.964;2023-03-26T15:41:25;96093.88;;;17.46;nan
43701;BME280;58809;47.984;7.964;2023-03-26T15:57:55;96108.44;;;16.33;nan
43701;BME280;58809;47.984;7.964;2023-03-26T16:01:27;96109.44;;;16.27;nan
43701;BME280;58809;47.984;7.964;2023-03-26T16:11:57;96105.22;;;16.31;nan
43701;BME280;58809;47.984;7.964;2023-03-26T16:18:18;96128.69;;;16.29;nan
43701;BME280;58809;47.984;7.964;2023-03-26T16:24:40;96135.50;;;16.20;nan
43701;BME280;58809;47.984;7.964;2023-03-26T16:27:44;96147.94;;;16.14;nan
43701;BME280;58809;47.984;7.964;2023-03-26T16:31:17;96150.03;;;15.67;nan
43701;BME280;58809;47.984;7.964;2023-03-26T16:34:46;96157.09;;;15.44;nan
43701;BME280;58809;47.984;7.964;2023-03-26T16:38:03;96150.00;;;15.50;nan
43701;BME280;58809;47.984;7.964;2023-03-26T16:41:26;96140.81;;;15.86;nan
43701;BME280;58809;47.984;7.964;2023-03-26T16:44:38;96144.38;;;15.63;nan
43701;BME280;58809;47.984;7.964;2023-03-26T16:48:19;96135.16;;;15.71;nan
43701;BME280;58809;47.984;7.964;2023-03-26T16:55:14;96134.31;;;15.82;nan
43701;BME280;58809;47.984;7.964;2023-03-26T16:58:24;96125.19;;;15.78;nan
43701;BME280;58809;47.984;7.964;2023-03-26T17:01:45;96129.53;;;15.84;nan
43701;BME280;58809;47.984;7.964;2023-03-26T17:04:53;96133.06;;;15.73;nan
43701;BME280;58809;47.984;7.964;2023-03-26T17:17:48;96160.72;;;15.55;nan
43701;BME280;58809;47.984;7.964;2023-03-26T17:21:02;96170.31;;;15.39;nan
43701;BME280;58809;47.984;7.964;2023-03-26T17:31:26;96165.72;;;15.11;nan
43701;BME280;58809;47.984;7.964;2023-03-26T17:37:40;96161.81;;;15.01;nan
43701;BME280;58809;47.984;7.964;2023-03-26T17:43:55;96168.84;;;15.19;nan
43701;BME280;58809;47.984;7.964;2023-03-26T17:46:58;96174.00;;;14.97;nan
43701;BME280;58809;47.984;7.964;2023-03-26T17:50:20;96169.84;;;14.90;nan
43701;BME280;58809;47.984;7.964;2023-03-26T17:53:33;96168.53;;;14.92;nan
43701;BME280;58809;47.984;7.964;2023-03-26T17:56:35;96167.28;;;14.95;nan
43701;BME280;58809;47.984;7.964;2023-03-26T17:59:39;96170.16;;;15.05;nan
43701;BME280;58809;47.984;7.964;2023-03-26T18:02:45;96169.84;;;14.90;nan
43701;BME280;58809;47.984;7.964;2023-03-26T18:05:57;96165.66;;;14.94;nan
43701;BME280;58809;47.984;7.964;2023-03-26T18:09:11;96162.53;;;14.97;nan
43701;BME280;58809;47.984;7.964;2023-03-26T18:12:33;96161.28;;;14.88;nan
43701;BME280;58809;47.984;7.964;2023-03-26T18:15:48;96169.72;;;14.85;nan
43701;BME280;58809;47.984;7.964;2023-03-26T18:18:56;96158.03;;;14.86;nan
43701;BME280;58809;47.984;7.964;2023-03-26T18:22:03;96161.47;;;14.98;nan
43701;BME280;58809;47.984;7.964;2023-03-26T18:25:22;96157.56;;;14.89;nan
43701;BME280;58809;47.984;7.964;2023-03-26T18:28:32;96158.03;;;14.86;nan
43701;BME280;58809;47.984;7.964;2023-03-26T18:31:39;96159.97;;;14.90;nan
43701;BME280;58809;47.984;7.964;2023-03-26T18:34:46;96148.19;;;14.74;nan
43701;BME280;58809;47.984;7.964;2023-03-26T18:37:52;96148.66;;;14.71;nan
43701;BME280;58809;47.984;7.964;2023-03-26T18:40:57;96142.47;;;14.00;nan
43701;BME280;58809;47.984;7.964;2023-03-26T18:44:05;96152.25;;;13.76;nan
43701;BME280;58809;47.984;7.964;2023-03-26T18:47:09;96146.78;;;13.71;nan
43701;BME280;58809;47.984;7.964;2023-03-26T18:50:14;96143.84;;;13.60;nan
43701;BME280;58809;47.984;7.964;2023-03-26T18:53:20;96138.47;;;13.67;nan
43701;BME280;58809;47.984;7.964;2023-03-26T18:56:31;96141.41;;;13.59;nan
43701;BME280;58809;47.984;7.964;2023-03-26T18:59:36;96129.53;;;13.61;nan
43701;BME280;58809;47.984;7.964;2023-03-26T19:02:41;96125.59;;;13.64;nan
43701;BME280;58809;47.984;7.964;2023-03-26T19:05:43;96124.13;;;13.68;nan
43701;BME280;58809;47.984;7.964;2023-03-26T19:08:45;96125.19;;;13.79;nan
43701;BME280;58809;47.984;7.964;2023-03-26T19:11:49;96132.50;;;13.83;nan
43701;BME280;58809;47.984;7.964;2023-03-26T19:15:12;96119.06;;;13.78;nan
43701;BME280;58809;47.984;7.964;2023-03-26T19:18:18;96113.06;;;13.83;nan
43701;BME280;58809;47.984;7.964;2023-03-26T19:21:20;96114.19;;;13.75;nan
43701;BME280;58809;47.984;7.964;2023-03-26T19:24:23;96107.72;;;13.71;nan
43701;BME280;58809;47.984;7.964;2023-03-26T19:27:26;96111.56;;;13.87;nan
43701;BME280;58809;47.984;7.964;2023-03-26T19:30:30;96108.91;;;13.99;nan
43701;BME280;58809;47.984;7.964;2023-03-26T19:33:35;96123.97;;;14.05;nan
43701;BME280;58809;47.984;7.964;2023-03-26T19:36:50;96124.44;;;14.02;nan
43701;BME280;58809;47.984;7.964;2023-03-26T19:40:12;96133.75;;;13.81;nan
43701;BME280;58809;47.984;7.964;2023-03-26T19:43:14;96142.69;;;13.56;nan
43701;BME280;58809;47.984;7.964;2023-03-26T19:46:18;96151.53;;;13.01;nan
43701;BME280;58809;47.984;7.964;2023-03-26T19:49:30;96158.16;;;12.55;nan
43701;BME280;58809;47.984;7.964;2023-03-26T19:52:36;96145.91;;;12.54;nan
43701;BME280;58809;47.984;7.964;2023-03-26T19:55:39;96142.88;;;12.50;nan
43701;BME280;58809;47.984;7.964;2023-03-26T19:58:42;96130.19;;;12.52;nan
43701;BME280;58809;47.984;7.964;2023-03-26T20:01:43;96126.38;;;12.67;nan
43701;BME280;58809;47.984;7.964;2023-03-26T20:04:45;96122.91;;;12.66;nan
43701;BME280;58809;47.984;7.964;2023-03-26T20:07:46;96130.00;;;12.73;nan
43701;BME280;58809;47.984;7.964;2023-03-26T20:10:50;96126.59;;;12.84;nan
43701;BME280;58809;47.984;7.964;2023-03-26T20:13:51;96128.91;;;12.80;nan
43701;BME280;58809;47.984;7.964;2023-03-26T20:16:53;96133.97;;;12.63;nan
43701;BME280;58809;47.984;7.964;2023-03-26T20:19:57;96132.00;;;12.59;nan
43701;BME280;58809;47.984;7.964;2023-03-26T20:22:59;96149.47;;;12.66;nan
43701;BME280;58809;47.984;7.964;2023-03-26T20:26:02;96150.41;;;12.72;nan
43701;BME280;58809;47.984;7.964;2023-03-26T20:29:03;96149.78;;;12.77;nan
43701;BME280;58809;47.984;7.964;2023-03-26T20:32:18;96154.41;;;12.63;nan
43701;BME280;58809;47.984;7.964;2023-03-26T20:35:22;96168.38;;;12.51;nan
43701;BME280;58809;47.984;7.964;2023-03-26T20:38:36;96175.84;;;12.61;nan
43701;BME280;58809;47.984;7.964;2023-03-26T20:41:44;96170.56;;;12.80;nan
43701;BME280;58809;47.984;7.964;2023-03-26T20:44:45;96187.75;;;12.96;nan
43701;BME280;58809;47.984;7.964;2023-03-26T20:47:49;96175.94;;;13.10;nan
43701;BME280;58809;47.984;7.964;2023-03-26T20:50:50;96181.16;;;13.17;nan
43701;BME280;58809;47.984;7.964;2023-03-26T20:53:52;96180.09;;;13.06;nan
43701;BME280;58809;47.984;7.964;2023-03-26T20:56:53;96186.28;;;13.00;nan
43701;BME280;58809;47.984;7.964;2023-03-26T20:59:55;96184.78;;;13.04;nan
43701;BME280;58809;47.984;7.964;2023-03-26T21:02:57;96180.59;;;12.96;nan
43701;BME280;58809;47.984;7.964;2023-03-26T21:06:02;96175.06;;;12.98;nan
43701;BME280;58809;47.984;7.964;2023-03-26T21:09:04;96172.47;;;13.09;nan
43701;BME280;58809;47.984;7.964;2023-03-26T21:12:27;96167.78;;;13.12;nan
43701;BME280;58809;47.984;7.964;2023-03-26T21:15:30;96165.63;;;13.02;nan
43701;BME280;58809;47.984;7.964;2023-03-26T21:18:32;96166.34;;;13.09;nan
43701;BME280;58809;47.984;7.964;2023-03-26T21:21:48;96168.50;;;13.19;nan
43701;BME280;58809;47.984;7.964;2023-03-26T21:25:02;96166.81;;;13.06;nan
43701;BME280;58809;47.984;7.964;2023-03-26T21:31:40;96163.78;;;13.02;nan
43701;BME280;58809;47.984;7.964;2023-03-26T21:34:41;96164.66;;;12.96;nan
43701;BME280;58809;47.984;7.964;2023-03-26T21:37:56;96164.66;;;12.96;nan
43701;BME280;58809;47.984;7.964;2023-03-26T21:40:59;96156.31;;;12.93;nan
43701;BME280;58809;47.984;7.964;2023-03-26T21:44:02;96158.53;;;12.96;nan
43701;BME280;58809;47.984;7.964;2023-03-26T21:47:04;96155.31;;;12.94;nan
43701;BME280;58809;47.984;7.964;2023-03-26T21:50:12;96158.22;;;12.85;nan